MHLC/LCE METAR and TAF weather

Enter ICAO airport designator
Station Type Date Time Source
MHLC METAR 2019/06/26 20:00 UTC NOAA

MHLC 262000Z 10004KT 9999 -TSRA SCT026CB SCT090 26/24 Q1012 A2989 NOSIG


Station Type Date Time Source
MHLC Decoded METAR 2019/06/26 20:00 UTC NOAA

La Ceiba Airport , Honduras (MHLC) 15-44N 086-52W 26M
Jun 26, 2019 - 04:00 PM EDT / 2019.06.26 2000 UTC
Wind: from the E (100 degrees) at 5 MPH (4 KT):0
Visibility: greater than 7 mile(s):0
Sky conditions: partly cloudy
Weather: light rain with thunder; Cumulonimbus clouds observed
Temperature: 78 F (26 C)
Dew Point: 75 F (24 C)
Relative Humidity: 88%
Pressure (altimeter): 29.89 in. Hg (1012 hPa)
ob: MHLC 262000Z 10004KT 9999 -TSRA SCT026CB SCT090 26/24 Q1012 A2989 NOSIG
cycle: 20

Station Type Date Time Source
MHLC TAF 2019/06/26 18:49 UTC NOAA

TAF MHLC 261630Z 2618/2718 06015G25KT 9999 FEW026CB SCT028TCU TX33/2620Z TN23/2712Z
TEMPO 2621/2701 6000 -TSRA SCT026CB BKN080
BECMG 2701/2703 9999 NSW SCT026 SCT080
BECMG 2708/2710 13006KT FEW024

Example: see airport list